createdAt,value
2023-05-04T00:03:44.553Z,96416.03
2023-05-04T00:08:46.245Z,96412.53
2023-05-04T00:13:47.794Z,96416.38
2023-05-04T00:18:49.275Z,96414.03
2023-05-04T00:23:50.820Z,96415.63
2023-05-04T00:28:52.318Z,96416.00
2023-05-04T00:33:53.879Z,96403.84
2023-05-04T00:38:55.497Z,96406.97
2023-05-04T00:43:57.092Z,96404.25
2023-05-04T00:49:04.356Z,96398.75
2023-05-04T00:54:08.346Z,96394.81
2023-05-04T00:59:09.955Z,96389.72
2023-05-04T01:04:12.184Z,96395.19
2023-05-04T01:09:52.365Z,96393.63
2023-05-04T01:14:56.320Z,96388.13
2023-05-04T01:19:57.889Z,96392.44
2023-05-04T01:25:00.199Z,96384.22
2023-05-04T01:30:08.964Z,96389.66
2023-05-04T01:35:11.835Z,96385.75
2023-05-04T01:40:13.382Z,96378.69
2023-05-04T01:45:14.900Z,96386.91
2023-05-04T01:50:16.544Z,96381.41
2023-05-04T01:55:18.201Z,96381.41
2023-05-04T02:00:19.910Z,96370.81
2023-05-04T02:05:21.594Z,96371.19
2023-05-04T02:10:23.701Z,96373.94
2023-05-04T02:15:25.220Z,96376.28
2023-05-04T02:20:26.790Z,96367.25
2023-05-04T02:25:28.422Z,96358.22
2023-05-04T02:30:30.007Z,96368.00
2023-05-04T02:35:32.903Z,96365.22
2023-05-04T02:40:34.450Z,96361.69
2023-05-04T02:45:36.488Z,96365.97
2023-05-04T02:50:38.067Z,96364.00
2023-05-04T02:55:39.589Z,96361.25
2023-05-04T03:00:41.249Z,96369.44
2023-05-04T03:05:42.874Z,96370.59
2023-05-04T03:10:45.677Z,96372.53
2023-05-04T03:15:47.189Z,96365.47
2023-05-04T03:20:48.829Z,96370.13
2023-05-04T03:25:53.916Z,96372.09
2023-05-04T03:30:55.811Z,96377.91
2023-05-04T03:35:57.628Z,96369.25
2023-05-04T03:40:59.194Z,96367.28
2023-05-04T03:46:00.861Z,96364.91
2023-05-04T03:51:02.752Z,96366.06
2023-05-04T03:56:04.504Z,96370.75
2023-05-04T04:01:07.117Z,96361.72
2023-05-04T04:06:10.478Z,96366.78
2023-05-04T04:11:12.823Z,96366.00
2023-05-04T04:16:14.394Z,96362.06
2023-05-04T04:21:15.968Z,96360.91
2023-05-04T04:26:17.554Z,96367.59
2023-05-04T04:31:19.824Z,96369.91
2023-05-04T04:36:21.385Z,96375.03
2023-05-04T04:41:23.211Z,96370.75
2023-05-04T04:46:24.754Z,96374.25
2023-05-04T04:51:26.494Z,96380.91
2023-05-04T04:56:28.171Z,96384.88
2023-05-04T05:01:29.952Z,96379.44
2023-05-04T05:06:31.638Z,96391.59
2023-05-04T05:11:33.230Z,96393.16
2023-05-04T05:16:35.060Z,96393.97
2023-05-04T05:21:36.870Z,96411.22
2023-05-04T05:26:39.100Z,96397.94
2023-05-04T05:31:41.344Z,96403.06
2023-05-04T05:36:45.378Z,96398.41
2023-05-04T05:41:47.559Z,96397.31
2023-05-04T05:46:49.147Z,96402.03
2023-05-04T05:51:54.716Z,96402.84
2023-05-04T05:56:58.863Z,96404.44
2023-05-04T06:02:02.130Z,96401.72
2023-05-04T06:07:04.786Z,96396.66
2023-05-04T06:12:12.296Z,96390.44
2023-05-04T06:17:16.248Z,96398.28
2023-05-04T06:22:18.989Z,96397.09
2023-05-04T06:27:24.427Z,96401.06
2023-05-04T06:32:31.606Z,96405.00
2023-05-04T06:37:37.907Z,96401.88
2023-05-04T06:42:46.327Z,96394.84
2023-05-04T06:47:56.661Z,96394.06
2023-05-04T06:53:15.575Z,96401.91
2023-05-04T06:58:23.829Z,96403.88
2023-05-04T07:03:32.597Z,96394.88
2023-05-04T07:08:40.777Z,96391.72
2023-05-04T07:13:48.530Z,96389.75
2023-05-04T07:18:55.633Z,96383.81
2023-05-04T07:24:02.915Z,96381.00
2023-05-04T07:29:10.215Z,96379.78
2023-05-04T07:34:19.262Z,96376.56
2023-05-04T07:39:28.509Z,96384.00
2023-05-04T07:44:36.943Z,96375.75
2023-05-04T07:49:44.732Z,96367.03
2023-05-04T07:54:55.496Z,96368.50
2023-05-04T08:00:05.329Z,96376.28
2023-05-04T08:05:22.730Z,96364.81
2023-05-04T08:10:30.929Z,96369.41
2023-05-04T08:15:39.263Z,96365.00
2023-05-04T08:20:47.727Z,96360.94
2023-05-04T08:25:56.582Z,96363.25
2023-05-04T08:31:06.967Z,96361.19
2023-05-04T08:36:13.618Z,96362.66
2023-05-04T08:41:25.901Z,96376.25
2023-05-04T08:46:36.965Z,96372.16
2023-05-04T08:51:48.629Z,96370.81
2023-05-04T08:56:57.773Z,96371.38
2023-05-04T09:02:06.041Z,96370.84
2023-05-04T09:07:13.560Z,96365.25
2023-05-04T09:12:28.762Z,96367.06
2023-05-04T09:17:47.533Z,96364.09
2023-05-04T09:23:10.197Z,96354.41
2023-05-04T09:28:17.651Z,96360.91
2023-05-04T09:33:29.325Z,96351.63
2023-05-04T09:38:41.633Z,96352.16
2023-05-04T09:43:49.151Z,96344.41
2023-05-04T09:48:58.296Z,96350.81
2023-05-04T09:54:10.529Z,96342.19
2023-05-04T09:59:19.271Z,96337.19
2023-05-04T10:04:27.731Z,96337.69
2023-05-04T10:09:38.896Z,96327.53
2023-05-04T10:14:50.781Z,96328.88
2023-05-04T10:20:00.234Z,96320.72
2023-05-04T10:25:17.838Z,96322.81
2023-05-04T10:30:26.306Z,96306.72
2023-05-04T10:35:35.285Z,96304.50
2023-05-04T10:40:43.771Z,96295.50
2023-05-04T10:45:51.505Z,96289.28
2023-05-04T10:50:58.331Z,96281.88
2023-05-04T10:56:05.839Z,96274.09
2023-05-04T11:01:16.200Z,96272.88
2023-05-04T11:06:26.675Z,96271.34
2023-05-04T11:11:38.599Z,96268.53
2023-05-04T11:16:45.699Z,96262.25
2023-05-04T11:21:53.820Z,96253.63
2023-05-04T11:27:01.688Z,96242.22
2023-05-04T11:32:09.151Z,96237.94
2023-05-04T11:37:17.753Z,96220.97
2023-05-04T11:42:25.383Z,96220.53
2023-05-04T11:47:31.929Z,96227.28
2023-05-04T11:52:43.931Z,96222.50
2023-05-04T11:58:00.403Z,96214.59
2023-05-04T12:03:05.942Z,96204.34
2023-05-04T12:08:14.258Z,96196.78
2023-05-04T12:13:18.412Z,96193.97
2023-05-04T12:18:23.145Z,96195.47
2023-05-04T12:23:25.872Z,96189.53
2023-05-04T12:28:29.712Z,96190.69
2023-05-04T12:33:34.558Z,96190.31
2023-05-04T12:38:38.403Z,96178.81
2023-05-04T12:43:41.377Z,96175.16
2023-05-04T12:48:44.028Z,96175.53
2023-05-04T12:53:48.096Z,96173.44
2023-05-04T12:58:52.061Z,96161.56
2023-05-04T13:03:55.650Z,96148.63
2023-05-04T13:08:57.779Z,96145.72
2023-05-04T13:14:03.638Z,96149.31
2023-05-04T13:19:07.142Z,96141.44
2023-05-04T13:24:09.701Z,96134.03
2023-05-04T13:29:11.704Z,96129.09
2023-05-04T13:34:19.443Z,96122.91
2023-05-04T13:39:22.844Z,96116.72
2023-05-04T13:44:25.398Z,96118.59
2023-05-04T13:49:30.568Z,96109.44
2023-05-04T13:54:34.428Z,96106.19
2023-05-04T13:59:36.063Z,96091.81
2023-05-04T14:04:39.901Z,96090.91
2023-05-04T14:09:41.762Z,96093.03
2023-05-04T14:14:43.346Z,96073.94
2023-05-04T14:19:45.689Z,96068.78
2023-05-04T14:24:48.861Z,96065.78
2023-05-04T14:29:52.024Z,96066.22
2023-05-04T14:35:12.188Z,96049.16
2023-05-04T14:40:15.783Z,96048.81
2023-05-04T14:45:17.756Z,96043.84
2023-05-04T14:50:21.758Z,96049.53
2023-05-04T14:55:23.385Z,96048.09
2023-05-04T15:00:26.376Z,96040.81
2023-05-04T15:05:28.428Z,96045.28
2023-05-04T15:10:32.804Z,96034.38
2023-05-04T15:15:40.785Z,96025.34
2023-05-04T15:20:44.033Z,96025.34
2023-05-04T15:25:45.859Z,96019.19
2023-05-04T15:30:47.572Z,96017.81
2023-05-04T15:35:49.264Z,96018.47
2023-05-04T15:40:51.724Z,96016.63
2023-05-04T15:45:53.654Z,96018.16
2023-05-04T15:50:55.303Z,96015.50
2023-05-04T15:55:57.019Z,96010.22
2023-05-04T16:00:59.841Z,96007.25
2023-05-04T16:06:02.889Z,95996.66
2023-05-04T16:11:07.366Z,95990.63
2023-05-04T16:16:11.883Z,95990.72
2023-05-04T16:21:15.362Z,95982.16
2023-05-04T16:26:17.460Z,95976.50
2023-05-04T16:31:22.135Z,95966.53
2023-05-04T16:36:25.370Z,95955.19
2023-05-04T16:41:30.650Z,95958.53
2023-05-04T16:46:32.271Z,95956.03
2023-05-04T16:51:34.002Z,95955.56
2023-05-04T16:56:37.011Z,95954.00
2023-05-04T17:01:39.395Z,95946.13
2023-05-04T17:06:41.047Z,95941.22
2023-05-04T17:11:42.845Z,95941.25
2023-05-04T17:16:44.488Z,95944.63
2023-05-04T17:21:46.286Z,95932.47
2023-05-04T17:26:48.351Z,95942.34
2023-05-04T17:31:50.243Z,95942.09
2023-05-04T17:36:55.631Z,95942.84
2023-05-04T17:42:02.029Z,95943.81
2023-05-04T17:47:09.727Z,95941.72
2023-05-04T17:52:17.518Z,95944.13
2023-05-04T17:57:25.598Z,95948.56
2023-05-04T18:02:32.917Z,95956.94
2023-05-04T18:07:41.780Z,95969.09
2023-05-04T18:12:49.040Z,95978.56
2023-05-04T18:17:55.817Z,95986.47
2023-05-04T18:23:03.193Z,95992.03
2023-05-04T18:28:10.802Z,95990.78
2023-05-04T18:33:18.184Z,95993.06
2023-05-04T18:38:28.226Z,95997.03
2023-05-04T18:43:35.415Z,96007.47
2023-05-04T18:48:42.170Z,96003.66
2023-05-04T18:53:49.699Z,96001.56
2023-05-04T18:58:58.615Z,96004.88
2023-05-04T19:04:09.426Z,96022.50
2023-05-04T19:09:18.570Z,96017.94
2023-05-04T19:14:28.796Z,96016.09
2023-05-04T19:19:40.551Z,96023.72
2023-05-04T19:24:52.692Z,96021.00
2023-05-04T19:29:59.558Z,96026.56
2023-05-04T19:35:08.880Z,96021.81
2023-05-04T19:40:15.726Z,96021.84
2023-05-04T19:45:23.641Z,96028.16
2023-05-04T19:50:31.622Z,96034.06
2023-05-04T19:55:39.058Z,96033.94
2023-05-04T20:00:47.521Z,96029.84
2023-05-04T20:05:55.559Z,96020.22
2023-05-04T20:11:02.898Z,96018.09
2023-05-04T20:16:10.102Z,96025.53
2023-05-04T20:21:17.462Z,96032.44
2023-05-04T20:26:25.348Z,96031.13
2023-05-04T20:31:31.978Z,96028.22
2023-05-04T20:36:39.195Z,96022.56
2023-05-04T20:41:45.913Z,96018.47
2023-05-04T20:46:54.126Z,96014.78
2023-05-04T20:52:00.452Z,96009.53
2023-05-04T20:57:08.659Z,96007.06
2023-05-04T21:02:12.548Z,96003.81
2023-05-04T21:07:18.142Z,95999.66
2023-05-04T21:12:22.140Z,95990.00
2023-05-04T21:17:27.418Z,95981.47
2023-05-04T21:22:30.954Z,95976.88
2023-05-04T21:27:33.652Z,95981.41
2023-05-04T21:32:35.955Z,95975.63
2023-05-04T21:37:37.997Z,95971.03
2023-05-04T21:42:40.494Z,95977.19
2023-05-04T21:47:44.299Z,95981.38
2023-05-04T21:52:49.375Z,95991.38
2023-05-04T21:57:51.571Z,95987.59
2023-05-04T22:02:55.113Z,95992.06
2023-05-04T22:07:56.960Z,95990.69
2023-05-04T22:12:59.461Z,95988.41
2023-05-04T22:18:01.174Z,95977.53
2023-05-04T22:23:04.312Z,95980.03
2023-05-04T22:28:09.048Z,95985.34
2023-05-04T22:33:15.341Z,95979.31
2023-05-04T22:38:18.866Z,95977.91
2023-05-04T22:43:20.772Z,95983.59
2023-05-04T22:48:22.516Z,95990.81
2023-05-04T22:53:24.214Z,95994.88
2023-05-04T22:58:25.813Z,96000.84
2023-05-04T23:03:28.571Z,95997.41
2023-05-04T23:08:30.869Z,95997.06
2023-05-04T23:13:32.453Z,95995.50
2023-05-04T23:18:34.050Z,96007.81
2023-05-04T23:23:35.951Z,96003.16
2023-05-04T23:28:38.151Z,96002.44
2023-05-04T23:33:40.197Z,95990.78
2023-05-04T23:38:41.965Z,95992.44
2023-05-04T23:43:43.953Z,95983.88
2023-05-04T23:48:46.610Z,95976.94
2023-05-04T23:53:48.283Z,95982.22
2023-05-04T23:58:51.920Z,95981.59
